createdAt,value
2016-10-04T00:00:34.123Z,11.75
2016-10-04T00:03:35.170Z,11.77
2016-10-04T00:04:56.354Z,11.77
2016-10-04T00:05:56.380Z,11.71
2016-10-04T00:06:56.395Z,11.78
2016-10-04T00:07:56.358Z,11.77
2016-10-04T00:08:56.380Z,11.75
2016-10-04T00:09:56.392Z,11.74
2016-10-04T00:10:56.383Z,11.86
2016-10-04T00:11:56.405Z,11.8
2016-10-04T00:12:56.396Z,11.72
2016-10-04T00:13:56.417Z,11.7
2016-10-04T00:14:56.406Z,11.68
2016-10-04T00:15:56.387Z,11.8
2016-10-04T00:16:56.404Z,11.74
2016-10-04T00:17:56.371Z,11.74
2016-10-04T00:18:56.385Z,11.77
2016-10-04T00:19:56.403Z,11.75
2016-10-04T00:20:56.389Z,11.8
2016-10-04T00:21:56.375Z,11.8
2016-10-04T00:22:56.408Z,11.8
2016-10-04T00:23:56.378Z,11.77
2016-10-04T00:24:56.354Z,11.77
2016-10-04T00:25:56.347Z,11.83
2016-10-04T00:26:56.400Z,11.78
2016-10-04T00:27:56.385Z,11.71
2016-10-04T00:28:56.385Z,11.8
2016-10-04T00:29:56.392Z,11.7
2016-10-04T00:30:56.390Z,11.74
2016-10-04T00:31:56.391Z,11.86
2016-10-04T00:32:56.362Z,11.8
2016-10-04T00:33:56.389Z,11.77
2016-10-04T00:34:56.360Z,11.8
2016-10-04T00:35:56.395Z,11.85
2016-10-04T00:36:56.395Z,11.82
2016-10-04T00:37:56.395Z,11.9
2016-10-04T00:38:56.379Z,11.83
2016-10-04T00:39:56.453Z,11.89
2016-10-04T00:40:56.412Z,11.86
2016-10-04T00:41:56.408Z,11.93
2016-10-04T00:42:56.404Z,11.78
2016-10-04T00:43:56.370Z,11.93
2016-10-04T00:44:56.398Z,11.86
2016-10-04T00:45:56.398Z,11.82
2016-10-04T00:46:56.475Z,11.86
2016-10-04T00:47:56.387Z,11.82
2016-10-04T00:48:56.388Z,11.82
2016-10-04T00:49:56.400Z,11.87
2016-10-04T00:50:56.417Z,11.94
2016-10-04T00:51:56.405Z,11.93
2016-10-04T00:52:56.394Z,11.86
2016-10-04T00:53:56.401Z,11.85
2016-10-04T00:54:56.388Z,11.87
2016-10-04T00:55:56.408Z,11.89
2016-10-04T00:56:56.412Z,11.83
2016-10-04T00:57:56.428Z,11.83
2016-10-04T00:58:56.384Z,11.86
2016-10-04T00:59:56.457Z,11.74
2016-10-04T01:00:56.407Z,11.85
2016-10-04T01:01:56.399Z,11.96
2016-10-04T01:02:56.424Z,11.77
2016-10-04T01:03:56.398Z,11.82
2016-10-04T01:04:56.489Z,11.8
2016-10-04T01:05:56.395Z,11.74
2016-10-04T01:06:56.395Z,11.86
2016-10-04T01:07:56.410Z,11.78
2016-10-04T01:08:56.439Z,11.87
2016-10-04T01:09:56.423Z,11.83
2016-10-04T01:10:56.385Z,11.82
2016-10-04T01:11:56.407Z,11.77
2016-10-04T01:12:56.412Z,11.82
2016-10-04T01:13:56.411Z,11.8
2016-10-04T01:14:56.436Z,11.82
2016-10-04T01:15:56.461Z,11.86
2016-10-04T01:16:56.417Z,11.75
2016-10-04T01:17:56.424Z,11.89
2016-10-04T01:18:56.427Z,11.86
2016-10-04T01:19:56.394Z,11.78
2016-10-04T01:20:56.426Z,11.75
2016-10-04T01:21:56.414Z,11.77
2016-10-04T01:22:56.405Z,11.8
2016-10-04T01:23:56.387Z,11.89
2016-10-04T01:24:56.421Z,11.9
2016-10-04T01:25:56.455Z,11.93
2016-10-04T01:26:56.393Z,11.87
2016-10-04T01:27:56.410Z,11.87
2016-10-04T01:28:56.461Z,11.94
2016-10-04T01:29:56.427Z,12.01
2016-10-04T01:30:56.419Z,11.89
2016-10-04T01:31:56.423Z,11.9
2016-10-04T01:32:56.432Z,11.89
2016-10-04T01:33:56.437Z,11.89
2016-10-04T01:34:56.443Z,11.87
2016-10-04T01:35:56.452Z,11.94
2016-10-04T01:36:56.445Z,12.08
2016-10-04T01:37:56.452Z,11.99
2016-10-04T01:38:56.457Z,11.87
2016-10-04T01:39:56.422Z,11.99
2016-10-04T01:40:56.471Z,12.01
2016-10-04T01:41:56.439Z,12.04
2016-10-04T01:42:56.442Z,12.12
2016-10-04T01:43:56.428Z,12.05
2016-10-04T01:44:56.489Z,11.99
2016-10-04T01:45:56.461Z,12.11
2016-10-04T01:46:56.444Z,11.96
2016-10-04T01:47:56.531Z,12.09
2016-10-04T01:48:56.439Z,12.05
2016-10-04T01:49:56.486Z,12.06
2016-10-04T01:50:56.423Z,12.09
2016-10-04T01:51:56.459Z,12.13
2016-10-04T01:52:56.436Z,12.05
2016-10-04T01:53:56.476Z,12.06
2016-10-04T01:54:56.423Z,12.13
2016-10-04T01:55:56.444Z,12.08
2016-10-04T01:56:56.434Z,12.12
2016-10-04T01:57:56.475Z,12.2
2016-10-04T01:58:56.440Z,12.2
2016-10-04T01:59:56.424Z,12.23
2016-10-04T02:00:56.416Z,12.21
2016-10-04T02:01:56.437Z,12.21
2016-10-04T02:02:56.442Z,12.12
2016-10-04T02:03:56.450Z,12.16
2016-10-04T02:04:56.453Z,12.12
2016-10-04T02:05:56.480Z,12.15
2016-10-04T02:06:56.427Z,12.16
2016-10-04T02:07:56.459Z,12.2
2016-10-04T02:08:56.455Z,12.21
2016-10-04T02:09:56.458Z,12.19
2016-10-04T02:10:56.442Z,12.16
2016-10-04T02:11:56.444Z,12.21
2016-10-04T02:12:56.531Z,12.12
2016-10-04T02:13:56.471Z,12.2
2016-10-04T02:14:56.445Z,12.06
2016-10-04T02:15:56.487Z,12.26
2016-10-04T02:16:56.438Z,12.21
2016-10-04T02:17:56.446Z,12.24
2016-10-04T02:18:56.452Z,12.16
2016-10-04T02:19:56.448Z,12.33
2016-10-04T02:20:56.466Z,12.21
2016-10-04T02:21:56.455Z,12.23
2016-10-04T02:22:56.431Z,12.29
2016-10-04T02:23:56.452Z,12.19
2016-10-04T02:24:56.455Z,12.16
2016-10-04T02:25:56.496Z,12.37
2016-10-04T02:26:56.470Z,12.27
2016-10-04T02:27:56.456Z,12.24
2016-10-04T02:28:56.462Z,12.23
2016-10-04T02:29:56.461Z,12.26
2016-10-04T02:30:56.453Z,12.2
2016-10-04T02:31:56.479Z,12.15
2016-10-04T02:32:56.818Z,12.24
2016-10-04T02:33:56.474Z,12.16
2016-10-04T02:34:56.450Z,12.12
2016-10-04T02:35:56.449Z,12.16
2016-10-04T02:36:56.464Z,11.99
2016-10-04T02:37:56.558Z,12.12
2016-10-04T02:38:56.503Z,12.15
2016-10-04T02:39:56.484Z,12.13
2016-10-04T02:40:56.503Z,12.09
2016-10-04T02:41:56.481Z,12.16
2016-10-04T02:42:56.452Z,12.2
2016-10-04T02:43:56.978Z,12.12
2016-10-04T02:44:56.672Z,12.11
2016-10-04T02:45:56.491Z,12.12
2016-10-04T02:46:56.488Z,12.01
2016-10-04T02:47:56.486Z,12.08
2016-10-04T02:48:56.507Z,12.06
2016-10-04T02:49:56.469Z,12.06
2016-10-04T02:50:57.027Z,12.16
2016-10-04T02:51:56.599Z,12.12
2016-10-04T02:52:56.504Z,12.11
2016-10-04T02:53:56.493Z,12.11
2016-10-04T02:54:56.594Z,12.16
2016-10-04T02:55:56.472Z,12.13
2016-10-04T02:56:56.855Z,12.15
2016-10-04T02:57:56.826Z,12.12
2016-10-04T02:58:57.085Z,12.19
2016-10-04T02:59:57.095Z,12.13
2016-10-04T03:00:56.589Z,12.05
2016-10-04T03:01:56.492Z,12.04
2016-10-04T03:02:56.481Z,12.08
2016-10-04T03:03:56.505Z,12.12
2016-10-04T03:04:56.480Z,12.04
2016-10-04T03:05:56.633Z,12.15
2016-10-04T03:06:56.507Z,12.19
2016-10-04T03:07:56.499Z,12.06
2016-10-04T03:08:56.501Z,12.08
2016-10-04T03:09:56.486Z,12.19
2016-10-04T03:10:56.501Z,12.2
2016-10-04T03:11:56.789Z,12.23
2016-10-04T03:12:56.500Z,12.11
2016-10-04T03:13:56.491Z,12.16
2016-10-04T03:14:56.703Z,12.15
2016-10-04T03:15:56.478Z,12.16
2016-10-04T03:16:56.486Z,12.2
2016-10-04T03:17:56.494Z,12.15
2016-10-04T03:18:56.494Z,12.24
2016-10-04T03:19:56.678Z,12.2
2016-10-04T03:20:56.491Z,12.19
2016-10-04T03:21:56.567Z,12.23
2016-10-04T03:22:56.963Z,12.26
2016-10-04T03:23:56.675Z,12.16
2016-10-04T03:24:57.333Z,12.2
2016-10-04T03:25:56.937Z,12.19
2016-10-04T03:26:56.511Z,12.3
2016-10-04T03:27:56.710Z,12.33
2016-10-04T03:28:56.529Z,12.33
2016-10-04T03:29:56.549Z,12.2
2016-10-04T03:30:56.525Z,12.3
2016-10-04T03:31:56.595Z,12.29
2016-10-04T03:32:56.552Z,12.27
2016-10-04T03:33:56.519Z,12.33
2016-10-04T03:34:56.812Z,12.33
2016-10-04T03:35:56.570Z,12.33
2016-10-04T03:36:56.591Z,12.38
2016-10-04T03:37:56.514Z,12.33
2016-10-04T03:38:56.621Z,12.44
2016-10-04T03:39:56.537Z,12.3
2016-10-04T03:40:56.546Z,12.37
2016-10-04T03:41:56.537Z,12.38
2016-10-04T03:42:56.543Z,12.31
2016-10-04T03:43:56.843Z,12.37
2016-10-04T03:44:56.497Z,12.24
2016-10-04T03:45:56.535Z,12.42
2016-10-04T03:46:56.532Z,12.41
2016-10-04T03:47:56.516Z,12.37
2016-10-04T03:48:56.524Z,12.37
2016-10-04T03:49:56.557Z,12.41
2016-10-04T03:50:56.566Z,12.42
2016-10-04T03:51:56.610Z,12.33
2016-10-04T03:52:56.550Z,12.44
2016-10-04T03:53:56.547Z,12.44
2016-10-04T03:54:56.537Z,12.42
2016-10-04T03:55:56.529Z,12.44
2016-10-04T03:56:56.535Z,12.48
2016-10-04T03:57:56.551Z,12.29
2016-10-04T03:58:56.543Z,12.46
2016-10-04T03:59:56.514Z,12.46
2016-10-04T04:00:56.540Z,12.45
2016-10-04T04:01:56.551Z,12.38
2016-10-04T04:02:56.529Z,12.41
2016-10-04T04:03:56.576Z,12.41
2016-10-04T04:04:56.561Z,12.33
2016-10-04T04:05:56.561Z,12.52
2016-10-04T04:06:56.560Z,12.42
2016-10-04T04:07:56.539Z,12.41
2016-10-04T04:08:56.528Z,12.46
2016-10-04T04:09:56.534Z,12.48
2016-10-04T04:10:56.540Z,12.54
2016-10-04T04:11:56.557Z,12.42
2016-10-04T04:12:56.530Z,12.46
2016-10-04T04:13:56.543Z,12.56
2016-10-04T04:14:56.547Z,12.39
2016-10-04T04:15:56.570Z,12.56
2016-10-04T04:16:56.556Z,12.42
2016-10-04T04:17:56.541Z,12.41
2016-10-04T04:18:56.550Z,12.49
2016-10-04T04:19:56.559Z,12.62
2016-10-04T04:20:56.565Z,12.49
2016-10-04T04:21:56.600Z,12.54
2016-10-04T04:22:56.549Z,12.51
2016-10-04T04:23:56.544Z,12.63
2016-10-04T04:24:56.579Z,12.46
2016-10-04T04:25:56.570Z,12.44
2016-10-04T04:26:56.610Z,12.42
2016-10-04T04:27:56.611Z,12.41
2016-10-04T04:28:56.568Z,12.41
2016-10-04T04:29:56.555Z,12.44
2016-10-04T04:30:56.590Z,12.45
2016-10-04T04:31:56.557Z,12.59
2016-10-04T04:32:56.547Z,12.52
2016-10-04T04:33:56.600Z,12.6
2016-10-04T04:34:56.560Z,12.59
2016-10-04T04:35:56.560Z,12.54
2016-10-04T04:36:56.584Z,12.56
2016-10-04T04:37:56.562Z,12.62
2016-10-04T04:38:56.589Z,12.45
2016-10-04T04:39:56.541Z,12.49
2016-10-04T04:40:56.552Z,12.39
2016-10-04T04:41:56.557Z,12.48
2016-10-04T04:42:56.635Z,12.41
2016-10-04T04:43:56.570Z,12.26
2016-10-04T04:44:56.563Z,12.44
2016-10-04T04:45:56.557Z,12.39
2016-10-04T04:46:56.574Z,12.44
2016-10-04T04:47:56.579Z,12.38
2016-10-04T04:48:56.617Z,12.38
2016-10-04T04:49:56.607Z,12.38
2016-10-04T04:50:56.654Z,12.29
2016-10-04T04:51:56.592Z,12.37
2016-10-04T04:52:56.585Z,12.42
2016-10-04T04:53:56.592Z,12.37
2016-10-04T04:54:56.570Z,12.23
2016-10-04T04:55:56.603Z,12.29
2016-10-04T04:56:56.570Z,12.42
2016-10-04T04:57:56.601Z,12.48
2016-10-04T04:58:56.574Z,12.3
2016-10-04T04:59:56.584Z,12.37
2016-10-04T05:00:56.576Z,12.37
2016-10-04T05:01:56.621Z,12.34
2016-10-04T05:02:56.609Z,12.41
2016-10-04T05:03:56.565Z,12.42
2016-10-04T05:04:56.593Z,12.39
2016-10-04T05:05:56.580Z,12.38
2016-10-04T05:06:56.570Z,12.46
2016-10-04T05:07:56.592Z,12.27
2016-10-04T05:08:56.589Z,12.42
2016-10-04T05:09:56.617Z,12.41
2016-10-04T05:10:56.605Z,12.29
2016-10-04T05:11:56.605Z,12.16
2016-10-04T05:12:56.627Z,12.3
2016-10-04T05:13:56.640Z,12.23
2016-10-04T05:14:56.614Z,12.23
2016-10-04T05:15:56.707Z,12.45
2016-10-04T05:16:56.879Z,12.38
2016-10-04T05:17:56.633Z,12.27
2016-10-04T05:18:56.594Z,12.41
2016-10-04T05:19:56.623Z,12.31
2016-10-04T05:20:56.589Z,12.37
2016-10-04T05:21:56.624Z,12.21
2016-10-04T05:22:56.617Z,12.31
2016-10-04T05:23:56.754Z,12.42
2016-10-04T05:24:56.675Z,12.41
2016-10-04T05:25:56.911Z,12.37
2016-10-04T05:26:56.927Z,12.29
2016-10-04T05:27:56.797Z,12.21
2016-10-04T05:28:56.613Z,12.34
2016-10-04T05:29:56.877Z,12.26
2016-10-04T05:30:56.684Z,12.3
2016-10-04T05:31:56.671Z,12.23
2016-10-04T05:32:56.645Z,12.31
2016-10-04T05:33:56.751Z,12.26
2016-10-04T05:34:56.624Z,12.26
2016-10-04T05:35:56.585Z,12.42
2016-10-04T05:36:56.664Z,12.19
2016-10-04T05:37:56.673Z,12.37
2016-10-04T05:38:56.634Z,12.26
2016-10-04T05:39:56.667Z,12.39
2016-10-04T05:40:56.619Z,12.38
2016-10-04T05:41:56.636Z,12.31
2016-10-04T05:42:56.660Z,12.27
2016-10-04T05:43:56.642Z,12.3
2016-10-04T05:44:56.673Z,12.2
2016-10-04T05:45:56.634Z,12.26
2016-10-04T05:46:56.629Z,12.23
2016-10-04T05:47:56.618Z,12.2
2016-10-04T05:48:56.615Z,12.26
2016-10-04T05:49:56.662Z,12.2
2016-10-04T05:50:57.273Z,12.23
2016-10-04T05:51:56.681Z,12.19
2016-10-04T05:52:56.680Z,12.24
2016-10-04T05:53:56.679Z,12.21
2016-10-04T05:54:56.674Z,12.21
2016-10-04T05:55:56.660Z,12.23
2016-10-04T05:56:56.642Z,12.19
2016-10-04T05:57:56.648Z,12.19
2016-10-04T05:58:56.654Z,12.24
2016-10-04T05:59:56.627Z,12.12
2016-10-04T06:00:56.632Z,12.04
2016-10-04T06:01:56.631Z,12.15
2016-10-04T06:02:56.671Z,12.15
2016-10-04T06:03:56.658Z,12.02
2016-10-04T06:04:56.628Z,12.01
2016-10-04T06:05:56.623Z,12.05
2016-10-04T06:06:56.638Z,11.93
2016-10-04T06:07:56.642Z,11.97
2016-10-04T06:08:56.634Z,11.99
2016-10-04T06:09:56.624Z,11.96
2016-10-04T06:10:56.619Z,12.13
2016-10-04T06:11:56.668Z,11.97
2016-10-04T06:12:56.664Z,12.02
2016-10-04T06:13:56.744Z,11.97
2016-10-04T06:14:56.693Z,12.05
2016-10-04T06:15:56.659Z,12.01
2016-10-04T06:16:56.642Z,12.12
2016-10-04T06:17:56.680Z,12.09
2016-10-04T06:18:56.699Z,12.19
2016-10-04T06:19:56.651Z,12.15
2016-10-04T06:20:56.666Z,12.13
2016-10-04T06:21:56.661Z,12.2
2016-10-04T06:22:56.699Z,12.08
2016-10-04T06:23:56.639Z,12.2
2016-10-04T06:24:56.669Z,12.06
2016-10-04T06:25:56.724Z,12.04
2016-10-04T06:26:56.709Z,12.02
2016-10-04T06:27:56.736Z,11.93
2016-10-04T06:28:56.716Z,12.06
2016-10-04T06:29:56.677Z,12.05
2016-10-04T06:30:56.636Z,12.01
2016-10-04T06:31:56.716Z,11.94
2016-10-04T06:32:56.665Z,12.01
2016-10-04T06:33:56.643Z,11.97
2016-10-04T06:34:56.656Z,11.89
2016-10-04T06:35:56.644Z,12.01
2016-10-04T06:36:56.635Z,11.99
2016-10-04T06:37:56.659Z,11.97
2016-10-04T06:38:56.649Z,12.05
2016-10-04T06:39:56.650Z,11.9
2016-10-04T06:40:56.667Z,11.86
2016-10-04T06:41:56.654Z,11.94
2016-10-04T06:42:56.734Z,11.99
2016-10-04T06:43:56.724Z,11.94
2016-10-04T06:44:56.690Z,11.99
2016-10-04T06:45:56.688Z,11.97
2016-10-04T06:46:56.669Z,11.89
2016-10-04T06:47:56.723Z,11.96
2016-10-04T06:48:56.703Z,11.94
2016-10-04T06:49:56.694Z,11.87
2016-10-04T06:50:56.675Z,11.94
2016-10-04T06:51:56.707Z,12.06
2016-10-04T06:52:56.704Z,11.9
2016-10-04T06:53:56.677Z,11.99
2016-10-04T06:54:56.747Z,11.99
2016-10-04T06:55:56.664Z,12.04
2016-10-04T06:56:56.725Z,12.13
2016-10-04T06:57:56.721Z,12.16
2016-10-04T06:58:56.719Z,12.12
2016-10-04T06:59:56.696Z,12.24
2016-10-04T07:00:56.684Z,12.29
2016-10-04T07:01:56.712Z,12.3
2016-10-04T07:02:56.668Z,12.46
2016-10-04T07:03:56.718Z,12.46
2016-10-04T07:04:57.147Z,12.44
2016-10-04T07:05:56.672Z,12.59
2016-10-04T07:06:56.717Z,12.51
2016-10-04T07:07:56.703Z,12.67
2016-10-04T07:08:56.828Z,12.67
2016-10-04T07:09:56.703Z,12.71
2016-10-04T07:10:56.765Z,12.77
2016-10-04T07:11:56.729Z,12.82
2016-10-04T07:12:56.693Z,12.97
2016-10-04T07:13:56.765Z,12.96
2016-10-04T07:14:56.738Z,12.93
2016-10-04T07:15:56.708Z,12.97
2016-10-04T07:16:56.707Z,12.97
2016-10-04T07:17:56.701Z,12.95
2016-10-04T07:18:56.707Z,13.02
2016-10-04T07:19:56.727Z,12.99
2016-10-04T07:20:56.721Z,13.09
2016-10-04T07:21:56.712Z,13.03
2016-10-04T07:22:56.706Z,12.97
2016-10-04T07:23:56.696Z,12.97
2016-10-04T07:24:56.743Z,13.03
2016-10-04T07:25:56.721Z,12.95
2016-10-04T07:26:56.719Z,12.97
2016-10-04T07:27:56.907Z,12.99
2016-10-04T07:28:56.714Z,12.87
2016-10-04T07:29:56.712Z,12.95
2016-10-04T07:30:56.726Z,13
2016-10-04T07:31:56.704Z,13.02
2016-10-04T07:32:56.697Z,12.87
2016-10-04T07:33:56.720Z,12.99
2016-10-04T07:34:56.726Z,13.02
2016-10-04T07:35:56.704Z,12.87
2016-10-04T07:36:56.740Z,13
2016-10-04T07:37:56.749Z,12.92
2016-10-04T07:38:56.738Z,12.99
2016-10-04T07:39:56.716Z,13.02
2016-10-04T07:40:56.737Z,12.84
2016-10-04T07:41:56.744Z,12.99
2016-10-04T07:42:56.737Z,12.97
2016-10-04T07:43:56.705Z,12.93
2016-10-04T07:44:56.716Z,13
2016-10-04T07:45:56.773Z,13.02
2016-10-04T07:46:56.733Z,13
2016-10-04T07:47:56.748Z,12.95
2016-10-04T07:48:56.735Z,13.02
2016-10-04T07:49:56.731Z,13.06
2016-10-04T07:50:56.754Z,13.03
2016-10-04T07:51:56.735Z,13.07
2016-10-04T07:52:56.736Z,13.07
2016-10-04T07:53:56.765Z,13.02
2016-10-04T07:54:56.761Z,13.03
2016-10-04T07:55:56.758Z,13.09
2016-10-04T07:56:56.748Z,13.27
2016-10-04T07:57:56.777Z,13.21
2016-10-04T07:58:56.905Z,13.18
2016-10-04T07:59:56.769Z,13.15
2016-10-04T08:00:56.785Z,13.17
2016-10-04T08:01:56.913Z,13.25
2016-10-04T08:02:56.746Z,13.24
2016-10-04T08:03:56.754Z,13.33
2016-10-04T08:04:56.731Z,13.37
2016-10-04T08:05:56.741Z,13.4
2016-10-04T08:06:56.719Z,13.3
2016-10-04T08:07:56.738Z,13.44
2016-10-04T08:08:56.777Z,13.49
2016-10-04T08:09:56.738Z,13.52
2016-10-04T08:10:57.146Z,13.49
2016-10-04T08:11:56.766Z,13.55
2016-10-04T08:12:56.766Z,13.65
2016-10-04T08:13:56.764Z,13.69
2016-10-04T08:14:56.756Z,13.81
2016-10-04T08:15:56.988Z,14.01
2016-10-04T08:16:57.826Z,14.09
2016-10-04T08:17:56.761Z,13.98
2016-10-04T08:18:56.842Z,14.1
2016-10-04T08:19:57.127Z,14.07
2016-10-04T08:20:57.041Z,14.04
2016-10-04T08:21:56.855Z,14.16
2016-10-04T08:22:56.766Z,14.16
2016-10-04T08:23:57.111Z,13.92
2016-10-04T08:24:56.767Z,14.09
2016-10-04T08:25:56.760Z,14.02
2016-10-04T08:26:56.788Z,14.13
2016-10-04T08:27:56.786Z,14.1
2016-10-04T08:28:56.862Z,14.14
2016-10-04T08:29:56.801Z,14.17
2016-10-04T08:30:56.795Z,14.13
2016-10-04T08:31:56.776Z,14.21
2016-10-04T08:32:56.811Z,14.28
2016-10-04T08:33:56.812Z,14.25
2016-10-04T08:34:56.790Z,14.21
2016-10-04T08:35:56.784Z,14.27
2016-10-04T08:36:56.827Z,14.27
2016-10-04T08:37:56.802Z,14.2
2016-10-04T08:38:56.815Z,14.35
2016-10-04T08:39:56.799Z,14.25
2016-10-04T08:40:56.839Z,14.35
2016-10-04T08:41:57.068Z,14.25
2016-10-04T08:42:56.895Z,14.34
2016-10-04T08:43:56.933Z,14.29
2016-10-04T08:44:56.802Z,14.31
2016-10-04T08:45:56.831Z,14.39
2016-10-04T08:46:56.824Z,14.39
2016-10-04T08:47:56.804Z,14.43
2016-10-04T08:48:56.806Z,14.47
2016-10-04T08:49:56.827Z,14.32
2016-10-04T08:50:56.805Z,14.29
2016-10-04T08:51:56.809Z,14.21
2016-10-04T08:52:56.872Z,14.31
2016-10-04T08:53:56.831Z,14.21
2016-10-04T08:54:57.209Z,14.43
2016-10-04T08:55:56.817Z,14.42
2016-10-04T08:56:56.825Z,14.46
2016-10-04T08:57:56.851Z,14.49
2016-10-04T08:58:56.805Z,14.6
2016-10-04T08:59:56.805Z,14.67
2016-10-04T09:00:56.801Z,14.62
2016-10-04T09:01:56.815Z,14.62
2016-10-04T09:02:56.809Z,14.81
2016-10-04T09:03:56.825Z,14.74
2016-10-04T09:04:56.835Z,14.72
2016-10-04T09:05:57.143Z,14.75
2016-10-04T09:06:56.962Z,14.81
2016-10-04T09:07:56.830Z,14.75
2016-10-04T09:08:56.848Z,14.67
2016-10-04T09:09:57.017Z,14.68
2016-10-04T09:10:56.803Z,14.71
2016-10-04T09:11:56.834Z,14.81
2016-10-04T09:12:56.816Z,14.81
2016-10-04T09:13:56.816Z,14.67
2016-10-04T09:14:56.896Z,14.8
2016-10-04T09:15:56.819Z,14.94
2016-10-04T09:16:56.803Z,14.93
2016-10-04T09:17:56.836Z,14.91
2016-10-04T09:18:56.838Z,14.98
2016-10-04T09:19:56.823Z,14.9
2016-10-04T09:20:56.815Z,14.91
2016-10-04T09:21:56.857Z,14.8
2016-10-04T09:22:56.845Z,14.9
2016-10-04T09:23:56.866Z,15.08
2016-10-04T09:24:56.844Z,15.08
2016-10-04T09:25:56.866Z,14.99
2016-10-04T09:26:56.857Z,14.93
2016-10-04T09:27:56.831Z,15.01
2016-10-04T09:28:56.841Z,14.94
2016-10-04T09:29:56.823Z,14.91
2016-10-04T09:30:56.881Z,14.95
2016-10-04T09:31:56.900Z,15.02
2016-10-04T09:32:56.866Z,15.13
2016-10-04T09:33:56.860Z,15.21
2016-10-04T09:34:56.867Z,15.21
2016-10-04T09:35:56.866Z,15.17
2016-10-04T09:36:56.844Z,15.27
2016-10-04T09:37:56.841Z,15.28
2016-10-04T09:38:56.862Z,15.35
2016-10-04T09:39:56.892Z,15.43
2016-10-04T09:40:56.899Z,15.3
2016-10-04T09:41:56.901Z,15.28
2016-10-04T09:42:56.853Z,15.33
2016-10-04T09:43:56.879Z,15.49
2016-10-04T09:44:56.866Z,15.38
2016-10-04T09:45:56.888Z,15.45
2016-10-04T09:46:56.862Z,15.45
2016-10-04T09:47:56.870Z,15.46
2016-10-04T09:48:56.908Z,15.51
2016-10-04T09:49:56.898Z,15.6
2016-10-04T09:50:56.847Z,15.61
2016-10-04T09:51:56.867Z,15.51
2016-10-04T09:52:56.861Z,15.48
2016-10-04T09:53:56.868Z,15.52
2016-10-04T09:54:56.879Z,15.48
2016-10-04T09:55:56.909Z,15.67
2016-10-04T09:56:56.876Z,15.74
2016-10-04T09:57:56.855Z,15.75
2016-10-04T09:58:56.892Z,15.78
2016-10-04T09:59:56.871Z,15.84
2016-10-04T10:00:56.876Z,15.89
2016-10-04T10:01:56.855Z,15.85
2016-10-04T10:02:56.873Z,15.88
2016-10-04T10:03:56.912Z,15.82
2016-10-04T10:04:56.876Z,15.85
2016-10-04T10:05:56.855Z,15.89
2016-10-04T10:06:56.868Z,15.89
2016-10-04T10:07:56.877Z,15.96
2016-10-04T10:08:56.855Z,16.04
2016-10-04T10:09:56.892Z,16.15
2016-10-04T10:10:56.909Z,16.07
2016-10-04T10:11:56.898Z,16.27
2016-10-04T10:12:56.888Z,16.23
2016-10-04T10:13:56.924Z,16.41
2016-10-04T10:14:56.861Z,16.53
2016-10-04T10:15:56.864Z,16.6
2016-10-04T10:16:56.851Z,16.77
2016-10-04T10:17:56.867Z,16.78
2016-10-04T10:18:56.870Z,16.7
2016-10-04T10:19:56.875Z,16.71
2016-10-04T10:20:56.874Z,16.73
2016-10-04T10:21:56.868Z,16.67
2016-10-04T10:22:56.919Z,16.71
2016-10-04T10:23:56.889Z,16.9
2016-10-04T10:24:56.904Z,16.92
2016-10-04T10:25:56.892Z,16.96
2016-10-04T10:26:56.950Z,17.08
2016-10-04T10:27:56.870Z,17
2016-10-04T10:28:56.892Z,17.07
2016-10-04T10:29:56.883Z,17.1
2016-10-04T10:30:56.862Z,17.11
2016-10-04T10:31:56.884Z,17.11
2016-10-04T10:32:56.902Z,17.26
2016-10-04T10:33:56.878Z,17.23
2016-10-04T10:34:56.874Z,17.23
2016-10-04T10:35:56.864Z,17.3
2016-10-04T10:36:56.887Z,17.25
2016-10-04T10:37:56.916Z,17.15
2016-10-04T10:38:56.886Z,17.23
2016-10-04T10:39:56.903Z,17.26
2016-10-04T10:40:56.887Z,17.32
2016-10-04T10:41:56.868Z,17.29
2016-10-04T10:42:56.915Z,17.26
2016-10-04T10:43:56.947Z,17.25
2016-10-04T10:44:56.915Z,17.44
2016-10-04T10:45:56.919Z,17.51
2016-10-04T10:46:56.909Z,17.55
2016-10-04T10:47:57.434Z,17.48
2016-10-04T10:48:56.908Z,17.47
2016-10-04T10:49:56.902Z,17.5
2016-10-04T10:50:56.894Z,17.43
2016-10-04T10:51:56.928Z,17.32
2016-10-04T10:52:56.895Z,17.2
2016-10-04T10:53:56.948Z,17.23
2016-10-04T10:54:56.926Z,17.06
2016-10-04T10:55:56.999Z,17.06
2016-10-04T10:56:56.920Z,16.99
2016-10-04T10:57:56.912Z,16.95
2016-10-04T10:58:56.919Z,16.98
2016-10-04T10:59:56.913Z,17.06
2016-10-04T11:00:57.018Z,17.06
2016-10-04T11:01:56.975Z,17.1
2016-10-04T11:02:56.937Z,17.32
2016-10-04T11:03:56.950Z,17.38
2016-10-04T11:04:56.962Z,17.28
2016-10-04T11:05:56.933Z,17.53
2016-10-04T11:06:56.928Z,17.5
2016-10-04T11:07:56.958Z,17.51
2016-10-04T11:08:56.990Z,17.53
2016-10-04T11:09:56.924Z,17.63
2016-10-04T11:10:56.936Z,17.57
2016-10-04T11:11:56.905Z,17.38
2016-10-04T11:12:56.920Z,17.38
2016-10-04T11:13:56.953Z,17.15
2016-10-04T11:14:56.931Z,17.1
2016-10-04T11:15:56.940Z,17.06
2016-10-04T11:16:56.940Z,16.98
2016-10-04T11:17:56.946Z,16.85
2016-10-04T11:18:56.967Z,16.8
2016-10-04T11:19:56.960Z,16.71
2016-10-04T11:20:56.918Z,16.59
2016-10-04T11:21:57.749Z,16.58
2016-10-04T11:22:57.001Z,16.62
2016-10-04T11:23:57.030Z,16.59
2016-10-04T11:24:56.942Z,16.5
2016-10-04T11:25:56.987Z,16.41
2016-10-04T11:26:56.973Z,16.52
2016-10-04T11:27:56.956Z,16.59
2016-10-04T11:28:56.990Z,16.55
2016-10-04T11:29:56.937Z,16.81
2016-10-04T11:30:56.957Z,16.73
2016-10-04T11:31:56.953Z,16.75
2016-10-04T11:32:56.982Z,16.8
2016-10-04T11:33:56.968Z,16.8
2016-10-04T11:34:57.027Z,16.86
2016-10-04T11:35:56.950Z,16.8
2016-10-04T11:36:56.981Z,16.99
2016-10-04T11:37:57.013Z,17.04
2016-10-04T11:38:56.994Z,17.06
2016-10-04T11:39:56.954Z,17.1
2016-10-04T11:40:56.955Z,16.99
2016-10-04T11:41:56.946Z,17
2016-10-04T11:42:57.015Z,17.04
2016-10-04T11:43:56.953Z,17.17
2016-10-04T11:44:57.002Z,17.23
2016-10-04T11:45:56.942Z,17.2
2016-10-04T11:46:57.423Z,17.26
2016-10-04T11:47:57.091Z,17.36
2016-10-04T11:48:57.010Z,17.33
2016-10-04T11:49:56.947Z,17.29
2016-10-04T11:50:56.974Z,17.47
2016-10-04T11:51:57.103Z,17.51
2016-10-04T11:52:57.021Z,17.73
2016-10-04T11:53:57.025Z,17.82
2016-10-04T11:54:56.971Z,17.82
2016-10-04T11:55:56.958Z,17.91
2016-10-04T11:56:57.011Z,18.09
2016-10-04T11:57:56.964Z,18.21
2016-10-04T11:58:56.997Z,18.28
2016-10-04T11:59:56.968Z,18.27
2016-10-04T12:00:57.002Z,18.21
2016-10-04T12:01:56.992Z,18.19
2016-10-04T12:02:57.009Z,18.24
2016-10-04T12:03:57.022Z,18.19
2016-10-04T12:04:57.044Z,18.18
2016-10-04T12:05:57.079Z,18.27
2016-10-04T12:06:57.022Z,18.4
2016-10-04T12:07:57.000Z,18.39
2016-10-04T12:08:56.999Z,18.27
2016-10-04T12:09:56.997Z,18.39
2016-10-04T12:10:56.983Z,18.43
2016-10-04T12:11:56.961Z,18.42
2016-10-04T12:12:56.987Z,18.44
2016-10-04T12:13:57.150Z,18.47
2016-10-04T12:14:56.997Z,18.61
2016-10-04T12:15:56.989Z,18.65
2016-10-04T12:16:57.028Z,18.67
2016-10-04T12:17:56.970Z,18.54
2016-10-04T12:18:57.020Z,18.39
2016-10-04T12:19:57.024Z,18.43
2016-10-04T12:20:57.005Z,18.37
2016-10-04T12:21:57.009Z,18.28
2016-10-04T12:22:56.983Z,18.27
2016-10-04T12:23:56.997Z,18.18
2016-10-04T12:24:57.031Z,18.12
2016-10-04T12:25:56.989Z,18.43
2016-10-04T12:26:56.989Z,18.4
2016-10-04T12:27:56.967Z,18.43
2016-10-04T12:28:57.022Z,18.44
2016-10-04T12:29:57.015Z,18.46
2016-10-04T12:30:57.010Z,18.5
2016-10-04T12:31:57.020Z,18.42
2016-10-04T12:32:57.083Z,18.39
2016-10-04T12:33:57.031Z,18.36
2016-10-04T12:34:56.983Z,18.17
2016-10-04T12:35:57.001Z,18.03
2016-10-04T12:36:57.040Z,17.85
2016-10-04T12:37:57.057Z,17.88
2016-10-04T12:38:57.006Z,17.82
2016-10-04T12:39:57.032Z,17.91
2016-10-04T12:40:57.039Z,17.79
2016-10-04T12:41:57.017Z,17.74
2016-10-04T12:42:57.048Z,17.79
2016-10-04T12:43:57.080Z,17.78
2016-10-04T12:44:57.018Z,17.85
2016-10-04T12:45:56.999Z,17.78
2016-10-04T12:46:57.022Z,17.76
2016-10-04T12:47:56.998Z,17.67
2016-10-04T12:48:57.047Z,17.76
2016-10-04T12:49:57.081Z,17.79
2016-10-04T12:50:57.039Z,17.71
2016-10-04T12:51:57.058Z,17.85
2016-10-04T12:52:57.049Z,17.87
2016-10-04T12:53:57.051Z,17.89
2016-10-04T12:54:57.041Z,17.88
2016-10-04T12:55:57.117Z,17.82
2016-10-04T12:56:57.041Z,17.87
2016-10-04T12:57:57.039Z,17.87